createdAt,value
2022-09-28T00:00:40.156Z,8.82
2022-09-28T00:01:40.471Z,8.78
2022-09-28T00:02:41.747Z,8.76
2022-09-28T00:03:40.858Z,8.78
2022-09-28T00:04:40.085Z,8.78
2022-09-28T00:05:40.301Z,8.76
2022-09-28T00:06:40.526Z,8.78
2022-09-28T00:07:40.758Z,8.75
2022-09-28T00:08:39.866Z,8.75
2022-09-28T00:09:40.139Z,8.76
2022-09-28T00:10:40.365Z,8.76
2022-09-28T00:11:40.605Z,8.75
2022-09-28T00:12:40.858Z,8.73
2022-09-28T00:13:40.069Z,8.71
2022-09-28T00:14:40.438Z,8.73
2022-09-28T00:15:40.581Z,8.70
2022-09-28T00:16:39.950Z,8.73
2022-09-28T00:17:40.061Z,8.68
2022-09-28T00:18:40.310Z,8.67
2022-09-28T00:19:40.583Z,8.67
2022-09-28T00:20:40.044Z,8.67
2022-09-28T00:21:40.021Z,8.67
2022-09-28T00:22:40.267Z,8.67
2022-09-28T00:23:40.514Z,8.67
2022-09-28T00:24:40.767Z,8.65
2022-09-28T00:25:40.001Z,8.65
2022-09-28T00:26:40.229Z,8.64
2022-09-28T00:27:40.472Z,8.64
2022-09-28T00:28:39.710Z,8.64
2022-09-28T00:29:39.959Z,8.63
2022-09-28T00:30:40.224Z,8.63
2022-09-28T00:31:40.554Z,8.63
2022-09-28T00:32:39.681Z,8.61
2022-09-28T00:33:39.936Z,8.60
2022-09-28T00:34:40.196Z,8.58
2022-09-28T00:35:40.453Z,8.55
2022-09-28T00:36:39.635Z,8.55
2022-09-28T00:37:39.863Z,8.54
2022-09-28T00:38:40.057Z,8.55
2022-09-28T00:39:40.273Z,8.50
2022-09-28T00:40:39.492Z,8.54
2022-09-28T00:41:40.819Z,8.52
2022-09-28T00:42:39.961Z,8.50
2022-09-28T00:43:40.208Z,8.49
2022-09-28T00:44:40.483Z,8.49
2022-09-28T00:45:39.737Z,8.50
2022-09-28T00:46:39.944Z,8.50
2022-09-28T00:47:40.277Z,8.50
2022-09-28T00:48:39.412Z,8.47
2022-09-28T00:49:39.671Z,8.46
2022-09-28T00:50:39.917Z,8.47
2022-09-28T00:51:40.180Z,8.45
2022-09-28T00:52:39.456Z,8.46
2022-09-28T00:53:39.747Z,8.47
2022-09-28T00:54:39.918Z,8.49
2022-09-28T00:55:40.177Z,8.49
2022-09-28T00:56:39.370Z,8.47
2022-09-28T00:57:39.633Z,8.46
2022-09-28T00:58:39.862Z,8.46
2022-09-28T00:59:41.970Z,8.46
2022-09-28T01:00:39.312Z,8.45
2022-09-28T01:01:39.568Z,8.46
2022-09-28T01:02:39.756Z,8.46
2022-09-28T01:03:40.004Z,8.42
2022-09-28T01:04:39.218Z,8.43
2022-09-28T01:05:39.454Z,8.42
2022-09-28T01:06:39.707Z,8.42
2022-09-28T01:07:39.957Z,8.43
2022-09-28T01:08:39.162Z,8.45
2022-09-28T01:09:39.759Z,8.43
2022-09-28T01:10:39.716Z,8.42
2022-09-28T01:11:39.875Z,8.39
2022-09-28T01:12:39.085Z,8.37
2022-09-28T01:13:39.344Z,8.37
2022-09-28T01:14:39.588Z,8.39
2022-09-28T01:15:40.057Z,8.37
2022-09-28T01:16:39.184Z,8.34
2022-09-28T01:17:39.351Z,8.39
2022-09-28T01:18:39.578Z,8.39
2022-09-28T01:19:39.828Z,8.34
2022-09-28T01:20:39.035Z,8.34
2022-09-28T01:21:39.328Z,8.34
2022-09-28T01:22:39.537Z,8.34
2022-09-28T01:23:38.739Z,8.36
2022-09-28T01:24:38.996Z,8.34
2022-09-28T01:25:39.260Z,8.32
2022-09-28T01:26:39.592Z,8.29
2022-09-28T01:27:38.751Z,8.28
2022-09-28T01:28:39.009Z,8.31
2022-09-28T01:29:39.268Z,8.25
2022-09-28T01:30:39.698Z,8.25
2022-09-28T01:31:38.790Z,8.25
2022-09-28T01:32:39.050Z,8.24
2022-09-28T01:33:40.201Z,8.24
2022-09-28T01:34:39.520Z,8.21
2022-09-28T01:35:38.703Z,8.21
2022-09-28T01:36:39.922Z,8.21
2022-09-28T01:37:39.221Z,8.18
2022-09-28T01:38:39.576Z,8.18
2022-09-28T01:39:38.673Z,8.20
2022-09-28T01:40:38.956Z,8.17
2022-09-28T01:41:39.148Z,8.22
2022-09-28T01:42:39.471Z,8.17
2022-09-28T01:43:38.611Z,8.12
2022-09-28T01:44:38.848Z,8.13
2022-09-28T01:45:39.103Z,8.10
2022-09-28T01:46:39.317Z,8.12
2022-09-28T01:47:38.510Z,8.10
2022-09-28T01:48:38.790Z,8.09
2022-09-28T01:49:38.546Z,8.12
2022-09-28T01:50:38.788Z,8.10
2022-09-28T01:51:39.042Z,8.10
2022-09-28T01:52:39.270Z,8.09
2022-09-28T01:53:38.486Z,8.12
2022-09-28T01:54:38.788Z,8.10
2022-09-28T01:55:38.972Z,8.10
2022-09-28T01:56:39.204Z,8.06
2022-09-28T01:57:38.409Z,8.09
2022-09-28T01:58:38.681Z,8.07
2022-09-28T01:59:38.931Z,8.06
2022-09-28T02:00:39.355Z,8.04
2022-09-28T02:01:38.449Z,8.03
2022-09-28T02:02:38.621Z,8.03
2022-09-28T02:03:38.891Z,8.03
2022-09-28T02:04:39.123Z,8.06
2022-09-28T02:05:38.419Z,8.04
2022-09-28T02:06:38.605Z,8.09
2022-09-28T02:07:38.882Z,8.06
2022-09-28T02:08:39.132Z,8.06
2022-09-28T02:09:38.340Z,8.06
2022-09-28T02:10:38.628Z,8.04
2022-09-28T02:11:38.895Z,8.02
2022-09-28T02:12:39.127Z,8.03
2022-09-28T02:13:38.357Z,8.03
2022-09-28T02:14:38.641Z,8.00
2022-09-28T02:15:38.900Z,8.00
2022-09-28T02:16:38.366Z,8.00
2022-09-28T02:17:38.370Z,7.95
2022-09-28T02:18:38.653Z,8.00
2022-09-28T02:19:38.883Z,8.00
2022-09-28T02:20:38.095Z,8.00
2022-09-28T02:21:38.373Z,8.00
2022-09-28T02:22:38.638Z,8.02
2022-09-28T02:23:38.878Z,8.03
2022-09-28T02:24:38.097Z,8.00
2022-09-28T02:25:38.330Z,8.02
2022-09-28T02:26:38.587Z,8.00
2022-09-28T02:27:38.880Z,8.00
2022-09-28T02:28:38.041Z,7.99
2022-09-28T02:29:38.302Z,7.99
2022-09-28T02:30:38.559Z,8.00
2022-09-28T02:31:38.861Z,7.99
2022-09-28T02:32:38.017Z,8.02
2022-09-28T02:33:38.332Z,8.02
2022-09-28T02:34:38.578Z,8.00
2022-09-28T02:35:37.930Z,7.94
2022-09-28T02:36:38.192Z,7.99
2022-09-28T02:37:37.889Z,8.00
2022-09-28T02:38:38.144Z,8.00
2022-09-28T02:39:38.423Z,7.99
2022-09-28T02:40:38.714Z,7.99
2022-09-28T02:41:37.864Z,7.99
2022-09-28T02:42:38.108Z,7.99
2022-09-28T02:43:38.384Z,7.99
2022-09-28T02:44:38.643Z,7.96
2022-09-28T02:45:37.916Z,7.99
2022-09-28T02:46:37.798Z,7.99
2022-09-28T02:47:39.072Z,7.99
2022-09-28T02:48:43.918Z,8.00
2022-09-28T02:49:39.535Z,8.02
2022-09-28T02:50:37.698Z,7.96
2022-09-28T02:51:37.938Z,7.99
2022-09-28T02:52:38.163Z,7.96
2022-09-28T02:53:38.429Z,8.00
2022-09-28T02:54:37.612Z,7.99
2022-09-28T02:55:38.062Z,8.02
2022-09-28T02:56:38.094Z,8.00
2022-09-28T02:57:39.193Z,7.99
2022-09-28T02:58:37.548Z,7.96
2022-09-28T02:59:37.814Z,7.99
2022-09-28T03:00:38.109Z,7.96
2022-09-28T03:01:38.457Z,7.96
2022-09-28T03:02:37.639Z,7.96
2022-09-28T03:03:37.835Z,7.95
2022-09-28T03:04:38.082Z,7.96
2022-09-28T03:05:38.324Z,7.99
2022-09-28T03:06:38.652Z,8.00
2022-09-28T03:07:37.787Z,7.95
2022-09-28T03:08:38.019Z,7.95
2022-09-28T03:09:38.270Z,7.99
2022-09-28T03:10:37.466Z,8.00
2022-09-28T03:11:37.723Z,8.00
2022-09-28T03:12:38.228Z,8.00
2022-09-28T03:13:39.201Z,7.99
2022-09-28T03:14:37.440Z,7.99
2022-09-28T03:15:37.704Z,8.00
2022-09-28T03:16:38.049Z,7.99
2022-09-28T03:17:38.604Z,7.96
2022-09-28T03:18:37.501Z,7.99
2022-09-28T03:19:37.794Z,7.99
2022-09-28T03:20:38.061Z,7.95
2022-09-28T03:21:37.324Z,7.99
2022-09-28T03:22:37.607Z,7.96
2022-09-28T03:23:37.925Z,7.94
2022-09-28T03:24:38.149Z,7.92
2022-09-28T03:25:37.378Z,7.92
2022-09-28T03:26:37.653Z,7.94
2022-09-28T03:27:37.914Z,7.95
2022-09-28T03:28:38.196Z,7.92
2022-09-28T03:29:37.446Z,7.95
2022-09-28T03:30:37.729Z,7.92
2022-09-28T03:31:38.066Z,7.94
2022-09-28T03:32:37.233Z,7.94
2022-09-28T03:33:37.512Z,7.96
2022-09-28T03:34:37.789Z,7.96
2022-09-28T03:35:38.068Z,7.94
2022-09-28T03:36:38.572Z,7.94
2022-09-28T03:37:37.978Z,7.94
2022-09-28T03:38:38.153Z,7.94
2022-09-28T03:39:37.357Z,7.94
2022-09-28T03:40:37.697Z,7.94
2022-09-28T03:41:37.865Z,7.94
2022-09-28T03:42:37.062Z,7.95
2022-09-28T03:43:37.306Z,7.94
2022-09-28T03:44:37.616Z,7.96
2022-09-28T03:45:37.836Z,7.95
2022-09-28T03:46:37.018Z,7.95
2022-09-28T03:47:37.294Z,7.96
2022-09-28T03:48:37.568Z,7.99
2022-09-28T03:49:37.827Z,8.03
2022-09-28T03:50:38.078Z,7.99
2022-09-28T03:51:37.286Z,8.00
2022-09-28T03:52:37.528Z,8.00
2022-09-28T03:53:37.793Z,8.02
2022-09-28T03:54:36.998Z,8.03
2022-09-28T03:55:37.312Z,7.99
2022-09-28T03:56:37.507Z,8.00
2022-09-28T03:57:36.715Z,8.02
2022-09-28T03:58:36.961Z,8.03
2022-09-28T03:59:37.211Z,8.02
2022-09-28T04:00:37.510Z,8.03
2022-09-28T04:01:37.822Z,8.04
2022-09-28T04:02:37.024Z,8.06
2022-09-28T04:03:38.066Z,8.04
2022-09-28T04:04:37.364Z,8.02
2022-09-28T04:05:37.628Z,8.03
2022-09-28T04:06:36.828Z,8.03
2022-09-28T04:07:37.058Z,8.00
2022-09-28T04:08:37.285Z,8.03
2022-09-28T04:09:37.537Z,8.03
2022-09-28T04:10:36.755Z,8.04
2022-09-28T04:11:53.136Z,8.02
2022-09-28T04:12:38.254Z,8.03
2022-09-28T04:13:37.503Z,8.06
2022-09-28T04:14:36.902Z,8.06
2022-09-28T04:15:36.988Z,8.02
2022-09-28T04:16:37.272Z,8.03
2022-09-28T04:17:40.055Z,8.03
2022-09-28T04:18:36.687Z,8.03
2022-09-28T04:19:36.948Z,8.02
2022-09-28T04:20:37.195Z,8.03
2022-09-28T04:21:37.724Z,8.02
2022-09-28T04:22:36.628Z,8.02
2022-09-28T04:23:36.855Z,8.02
2022-09-28T04:24:37.098Z,8.00
2022-09-28T04:25:37.326Z,8.02
2022-09-28T04:26:36.531Z,8.00
2022-09-28T04:27:36.827Z,7.99
2022-09-28T04:28:37.049Z,7.99
2022-09-28T04:29:37.276Z,7.99
2022-09-28T04:30:36.500Z,7.96
2022-09-28T04:31:36.821Z,7.99
2022-09-28T04:32:37.005Z,7.96
2022-09-28T04:33:37.266Z,7.96
2022-09-28T04:34:39.611Z,7.95
2022-09-28T04:35:37.726Z,7.96
2022-09-28T04:36:36.978Z,7.99
2022-09-28T04:37:37.249Z,7.94
2022-09-28T04:38:52.253Z,7.95
2022-09-28T04:39:37.729Z,7.94
2022-09-28T04:40:37.083Z,7.95
2022-09-28T04:41:36.217Z,7.94
2022-09-28T04:42:36.477Z,7.94
2022-09-28T04:43:36.726Z,7.94
2022-09-28T04:44:36.978Z,7.92
2022-09-28T04:45:37.268Z,7.89
2022-09-28T04:46:36.434Z,7.92
2022-09-28T04:47:36.672Z,7.91
2022-09-28T04:48:36.938Z,7.88
2022-09-28T04:49:37.214Z,7.89
2022-09-28T04:50:36.393Z,7.86
2022-09-28T04:51:36.668Z,7.86
2022-09-28T04:52:37.066Z,7.85
2022-09-28T04:53:36.126Z,7.85
2022-09-28T04:54:36.372Z,7.85
2022-09-28T04:55:36.664Z,7.85
2022-09-28T04:56:36.865Z,7.86
2022-09-28T04:57:37.105Z,7.86
2022-09-28T04:58:36.298Z,7.84
2022-09-28T04:59:36.539Z,7.85
2022-09-28T05:00:36.811Z,7.84
2022-09-28T05:01:37.126Z,7.85
2022-09-28T05:02:36.305Z,7.81
2022-09-28T05:03:36.497Z,7.82
2022-09-28T05:04:36.754Z,7.82
2022-09-28T05:05:36.123Z,7.79
2022-09-28T05:06:36.244Z,7.79
2022-09-28T05:07:36.552Z,7.79
2022-09-28T05:08:36.682Z,7.79
2022-09-28T05:09:38.586Z,7.76
2022-09-28T05:10:36.243Z,7.79
2022-09-28T05:11:36.447Z,7.76
2022-09-28T05:12:36.648Z,7.76
2022-09-28T05:13:35.841Z,7.77
2022-09-28T05:14:36.097Z,7.77
2022-09-28T05:15:36.362Z,7.76
2022-09-28T05:16:36.668Z,7.76
2022-09-28T05:17:36.012Z,7.74
2022-09-28T05:18:36.136Z,7.77
2022-09-28T05:19:36.396Z,7.76
2022-09-28T05:20:36.649Z,7.77
2022-09-28T05:21:35.857Z,7.79
2022-09-28T05:22:36.520Z,7.77
2022-09-28T05:23:36.386Z,7.79
2022-09-28T05:24:35.617Z,7.77
2022-09-28T05:25:35.876Z,7.77
2022-09-28T05:26:36.157Z,7.76
2022-09-28T05:27:36.415Z,7.77
2022-09-28T05:28:35.680Z,7.79
2022-09-28T05:29:35.879Z,7.79
2022-09-28T05:30:36.149Z,7.76
2022-09-28T05:31:36.449Z,7.77
2022-09-28T05:32:35.650Z,7.77
2022-09-28T05:33:35.925Z,7.77
2022-09-28T05:34:36.176Z,7.76
2022-09-28T05:35:36.390Z,7.76
2022-09-28T05:36:35.606Z,7.76
2022-09-28T05:37:35.863Z,7.79
2022-09-28T05:38:36.110Z,7.73
2022-09-28T05:39:36.393Z,7.81
2022-09-28T05:40:35.633Z,7.81
2022-09-28T05:41:35.819Z,7.81
2022-09-28T05:42:36.073Z,7.76
2022-09-28T05:43:36.337Z,7.76
2022-09-28T05:44:35.521Z,7.79
2022-09-28T05:45:35.848Z,7.79
2022-09-28T05:46:36.061Z,7.79
2022-09-28T05:47:36.293Z,7.77
2022-09-28T05:48:35.496Z,7.79
2022-09-28T05:49:35.749Z,7.79
2022-09-28T05:50:36.001Z,7.76
2022-09-28T05:51:36.268Z,7.77
2022-09-28T05:52:35.484Z,7.74
2022-09-28T05:53:35.719Z,7.74
2022-09-28T05:54:35.996Z,7.79
2022-09-28T05:55:35.186Z,7.73
2022-09-28T05:56:35.574Z,7.76
2022-09-28T05:57:35.728Z,7.79
2022-09-28T05:58:35.988Z,7.77
2022-09-28T05:59:35.190Z,7.76
2022-09-28T06:00:35.442Z,7.77
2022-09-28T06:01:35.756Z,7.79
2022-09-28T06:02:35.995Z,7.81
2022-09-28T06:03:35.110Z,7.82
2022-09-28T06:04:35.377Z,7.82
2022-09-28T06:05:35.619Z,7.81
2022-09-28T06:06:35.854Z,7.79
2022-09-28T06:07:35.369Z,7.81
2022-09-28T06:08:36.358Z,7.76
2022-09-28T06:09:35.595Z,7.81
2022-09-28T06:10:35.856Z,7.79
2022-09-28T06:11:35.070Z,7.82
2022-09-28T06:12:35.340Z,7.84
2022-09-28T06:13:35.630Z,7.81
2022-09-28T06:14:35.937Z,7.71
2022-09-28T06:15:35.088Z,7.88
2022-09-28T06:16:37.364Z,7.86
2022-09-28T06:17:35.599Z,7.82
2022-09-28T06:18:35.862Z,7.86
2022-09-28T06:19:35.200Z,7.88
2022-09-28T06:20:35.379Z,7.89
2022-09-28T06:21:35.622Z,7.89
2022-09-28T06:22:34.855Z,7.92
2022-09-28T06:23:35.110Z,7.94
2022-09-28T06:24:36.155Z,7.92
2022-09-28T06:25:35.635Z,7.91
2022-09-28T06:26:34.905Z,7.94
2022-09-28T06:27:35.120Z,7.96
2022-09-28T06:28:35.402Z,7.96
2022-09-28T06:29:35.665Z,7.95
2022-09-28T06:30:35.049Z,7.96
2022-09-28T06:31:35.186Z,7.94
2022-09-28T06:32:36.201Z,7.99
2022-09-28T06:33:35.662Z,8.00
2022-09-28T06:34:34.900Z,8.00
2022-09-28T06:35:35.186Z,8.02
2022-09-28T06:36:35.425Z,8.06
2022-09-28T06:37:35.667Z,8.06
2022-09-28T06:38:34.868Z,8.00
2022-09-28T06:39:35.129Z,7.99
2022-09-28T06:40:35.529Z,7.95
2022-09-28T06:41:34.612Z,8.00
2022-09-28T06:42:34.858Z,8.03
2022-09-28T06:43:35.097Z,8.06
2022-09-28T06:44:35.360Z,8.02
2022-09-28T06:45:34.597Z,8.07
2022-09-28T06:46:34.965Z,8.12
2022-09-28T06:47:35.086Z,8.12
2022-09-28T06:48:35.371Z,8.13
2022-09-28T06:49:34.570Z,8.12
2022-09-28T06:50:34.855Z,8.14
2022-09-28T06:51:35.109Z,8.14
2022-09-28T06:52:35.388Z,8.17
2022-09-28T06:53:34.602Z,8.14
2022-09-28T06:54:34.898Z,8.20
2022-09-28T06:55:35.157Z,8.20
2022-09-28T06:56:35.454Z,8.18
2022-09-28T06:57:34.669Z,8.17
2022-09-28T06:58:34.945Z,8.18
2022-09-28T06:59:35.202Z,8.13
2022-09-28T07:00:34.443Z,8.18
2022-09-28T07:01:34.722Z,8.17
2022-09-28T07:02:35.061Z,8.18
2022-09-28T07:03:35.171Z,8.21
2022-09-28T07:04:34.427Z,8.21
2022-09-28T07:05:34.645Z,8.21
2022-09-28T07:06:34.909Z,8.20
2022-09-28T07:07:35.192Z,8.22
2022-09-28T07:08:34.399Z,8.21
2022-09-28T07:09:37.299Z,8.18
2022-09-28T07:10:35.919Z,8.22
2022-09-28T07:11:35.171Z,8.24
2022-09-28T07:12:34.428Z,8.25
2022-09-28T07:13:49.614Z,8.24
2022-09-28T07:14:47.357Z,8.25
2022-09-28T07:15:35.130Z,8.27
2022-09-28T07:16:58.195Z,8.29
2022-09-28T07:17:44.276Z,8.37
2022-09-28T07:18:35.927Z,8.31
2022-09-28T07:19:34.153Z,8.31
2022-09-28T07:20:42.440Z,8.31
2022-09-28T07:21:35.640Z,8.31
2022-09-28T07:22:42.800Z,8.29
2022-09-28T07:23:46.629Z,8.28
2022-09-28T07:24:35.390Z,8.27
2022-09-28T07:25:34.596Z,8.29
2022-09-28T07:26:35.829Z,8.29
2022-09-28T07:27:35.110Z,8.31
2022-09-28T07:28:34.319Z,8.34
2022-09-28T07:29:34.808Z,8.34
2022-09-28T07:30:34.864Z,8.36
2022-09-28T07:31:34.047Z,8.36
2022-09-28T07:32:34.306Z,8.39
2022-09-28T07:33:34.564Z,8.34
2022-09-28T07:34:34.795Z,8.36
2022-09-28T07:35:35.132Z,8.37
2022-09-28T07:36:34.262Z,8.39
2022-09-28T07:37:34.513Z,8.40
2022-09-28T07:38:34.731Z,8.39
2022-09-28T07:39:33.937Z,8.39
2022-09-28T07:40:34.257Z,8.40
2022-09-28T07:41:34.520Z,8.40
2022-09-28T07:42:34.729Z,8.40
2022-09-28T07:43:33.923Z,8.43
2022-09-28T07:44:34.191Z,8.45
2022-09-28T07:45:34.495Z,8.47
2022-09-28T07:46:34.725Z,8.47
2022-09-28T07:47:35.304Z,8.50
2022-09-28T07:48:34.143Z,8.52
2022-09-28T07:49:34.369Z,8.50
2022-09-28T07:50:34.649Z,8.50
2022-09-28T07:51:33.835Z,8.50
2022-09-28T07:52:34.151Z,8.46
2022-09-28T07:53:34.315Z,8.57
2022-09-28T07:54:34.572Z,8.54
2022-09-28T07:55:33.842Z,8.54
2022-09-28T07:56:34.017Z,8.55
2022-09-28T07:57:34.454Z,8.54
2022-09-28T07:58:34.489Z,8.60
2022-09-28T07:59:33.707Z,8.61
2022-09-28T08:00:34.439Z,8.63
2022-09-28T08:01:34.277Z,8.65
2022-09-28T08:02:34.555Z,8.67
2022-09-28T08:03:33.669Z,8.68
2022-09-28T08:04:33.887Z,8.71
2022-09-28T08:05:34.096Z,8.73
2022-09-28T08:06:34.363Z,8.71
2022-09-28T08:07:33.553Z,8.73
2022-09-28T08:08:33.806Z,8.73
2022-09-28T08:09:36.621Z,8.78
2022-09-28T08:10:34.318Z,8.76
2022-09-28T08:11:33.479Z,8.76
2022-09-28T08:12:33.733Z,8.79
2022-09-28T08:13:33.953Z,8.85
2022-09-28T08:14:34.216Z,8.86
2022-09-28T08:15:34.391Z,8.85
2022-09-28T08:16:33.654Z,8.80
2022-09-28T08:17:33.806Z,8.82
2022-09-28T08:18:34.056Z,8.83
2022-09-28T08:19:34.327Z,8.83
2022-09-28T08:20:33.466Z,8.79
2022-09-28T08:21:33.700Z,8.80
2022-09-28T08:22:33.935Z,8.83
2022-09-28T08:23:34.164Z,8.85
2022-09-28T08:24:33.375Z,8.83
2022-09-28T08:25:33.625Z,8.86
2022-09-28T08:26:33.822Z,8.86
2022-09-28T08:27:34.083Z,8.89
2022-09-28T08:28:33.286Z,8.91
2022-09-28T08:29:33.533Z,8.96
2022-09-28T08:30:34.048Z,8.89
2022-09-28T08:31:34.037Z,8.93
2022-09-28T08:32:33.235Z,8.91
2022-09-28T08:33:33.479Z,8.91
2022-09-28T08:34:33.731Z,8.94
2022-09-28T08:35:34.032Z,8.91
2022-09-28T08:36:34.243Z,8.89
2022-09-28T08:37:33.440Z,8.93
2022-09-28T08:38:33.680Z,8.96
2022-09-28T08:39:33.902Z,9.00
2022-09-28T08:40:33.202Z,9.00
2022-09-28T08:41:33.448Z,9.01
2022-09-28T08:42:33.600Z,9.01
2022-09-28T08:43:33.835Z,9.00
2022-09-28T08:44:34.094Z,9.01
2022-09-28T08:45:33.233Z,9.00
2022-09-28T08:46:33.487Z,9.01
2022-09-28T08:47:33.239Z,9.00
2022-09-28T08:48:33.432Z,9.01
2022-09-28T08:49:33.875Z,9.03
2022-09-28T08:50:33.927Z,9.04
2022-09-28T08:51:33.127Z,9.06
2022-09-28T08:52:33.425Z,9.13
2022-09-28T08:53:33.598Z,9.15
2022-09-28T08:54:33.853Z,9.19
2022-09-28T08:55:33.026Z,9.23
2022-09-28T08:56:33.274Z,9.26
2022-09-28T08:57:33.519Z,9.30
2022-09-28T08:58:33.771Z,9.30
2022-09-28T08:59:32.965Z,9.40
2022-09-28T09:00:33.227Z,9.41
2022-09-28T09:01:33.534Z,9.44
2022-09-28T09:02:33.926Z,9.40
2022-09-28T09:03:32.935Z,9.44
2022-09-28T09:04:33.164Z,9.45
2022-09-28T09:05:33.383Z,9.48
2022-09-28T09:06:33.645Z,9.50
2022-09-28T09:07:32.841Z,9.42
2022-09-28T09:08:33.095Z,9.41
2022-09-28T09:09:34.366Z,9.40
2022-09-28T09:10:33.538Z,9.41
2022-09-28T09:11:33.792Z,9.44
2022-09-28T09:12:33.036Z,9.41
2022-09-28T09:13:33.265Z,9.40
2022-09-28T09:14:33.537Z,9.41
2022-09-28T09:15:32.756Z,9.42
2022-09-28T09:16:33.006Z,9.48
2022-09-28T09:17:33.173Z,9.44
2022-09-28T09:18:33.456Z,9.48
2022-09-28T09:19:33.681Z,9.48
2022-09-28T09:20:32.843Z,9.50
2022-09-28T09:21:33.056Z,9.55
2022-09-28T09:22:33.304Z,9.56
2022-09-28T09:23:33.544Z,9.60
2022-09-28T09:24:32.746Z,9.67
2022-09-28T09:25:37.759Z,9.74
2022-09-28T09:26:34.227Z,9.77
2022-09-28T09:27:33.489Z,9.81
2022-09-28T09:28:32.731Z,9.85
2022-09-28T09:29:33.184Z,9.86
2022-09-28T09:30:33.181Z,9.88
2022-09-28T09:31:33.420Z,9.92
2022-09-28T09:32:32.619Z,9.95
2022-09-28T09:33:32.853Z,9.93
2022-09-28T09:34:33.080Z,10.02
2022-09-28T09:35:33.564Z,10.02
2022-09-28T09:36:32.521Z,10.07
2022-09-28T09:37:32.777Z,10.10
2022-09-28T09:38:33.029Z,10.07
2022-09-28T09:39:33.274Z,10.09
2022-09-28T09:40:32.491Z,10.10
2022-09-28T09:41:32.881Z,10.16
2022-09-28T09:42:32.966Z,10.14
2022-09-28T09:43:33.214Z,10.13
2022-09-28T09:44:32.433Z,10.09
2022-09-28T09:45:32.648Z,10.07
2022-09-28T09:46:32.892Z,10.04
2022-09-28T09:47:33.113Z,10.07
2022-09-28T09:48:32.285Z,10.10
2022-09-28T09:49:32.509Z,10.10
2022-09-28T09:50:32.747Z,10.13
2022-09-28T09:51:32.966Z,10.10
2022-09-28T09:53:36.196Z,10.11
2022-09-28T09:54:33.596Z,10.10
2022-09-28T09:55:32.855Z,10.10
2022-09-28T09:56:33.077Z,10.16
2022-09-28T09:57:32.271Z,10.14
2022-09-28T09:58:32.500Z,10.18
2022-09-28T09:59:32.693Z,10.25
2022-09-28T10:00:32.927Z,10.26
2022-09-28T10:01:32.108Z,10.28
2022-09-28T10:02:32.418Z,10.32
2022-09-28T10:03:32.551Z,10.39
2022-09-28T10:04:32.777Z,10.42
2022-09-28T10:05:32.987Z,10.43
2022-09-28T10:06:32.208Z,10.46
2022-09-28T10:07:32.419Z,10.47
2022-09-28T10:08:32.627Z,10.52
2022-09-28T10:09:32.843Z,10.58
2022-09-28T10:10:32.037Z,10.52
2022-09-28T10:11:32.285Z,10.54
2022-09-28T10:12:32.487Z,10.58
2022-09-28T10:13:32.746Z,10.57
2022-09-28T10:14:31.911Z,10.60
2022-09-28T10:15:33.581Z,10.65
2022-09-28T10:16:32.369Z,10.70
2022-09-28T10:17:32.566Z,10.69
2022-09-28T10:18:31.844Z,10.70
2022-09-28T10:19:32.213Z,10.73
2022-09-28T10:20:32.352Z,10.72
2022-09-28T10:21:32.509Z,10.70
2022-09-28T10:22:31.679Z,10.70
2022-09-28T10:23:32.947Z,10.70
2022-09-28T10:24:32.142Z,10.72
2022-09-28T10:25:32.418Z,10.62
2022-09-28T10:26:32.571Z,10.76
2022-09-28T10:27:31.791Z,10.78
2022-09-28T10:28:32.007Z,10.78
2022-09-28T10:29:32.241Z,10.76
2022-09-28T10:30:32.547Z,10.81
2022-09-28T10:31:32.723Z,10.84
2022-09-28T10:32:31.895Z,10.81
2022-09-28T10:33:32.144Z,10.81
2022-09-28T10:34:32.381Z,10.83
2022-09-28T10:35:32.577Z,10.83
2022-09-28T10:36:32.005Z,10.81
2022-09-28T10:37:32.029Z,10.81
2022-09-28T10:38:32.281Z,10.76
2022-09-28T10:39:32.512Z,10.88
2022-09-28T10:40:31.752Z,10.87
2022-09-28T10:41:31.912Z,10.91
2022-09-28T10:42:32.214Z,10.90
2022-09-28T10:43:32.405Z,10.93
2022-09-28T10:44:31.577Z,10.93
2022-09-28T10:45:31.781Z,10.93
2022-09-28T10:46:32.074Z,10.94
2022-09-28T10:47:32.258Z,10.95
2022-09-28T10:48:32.494Z,10.99
2022-09-28T10:49:31.681Z,10.99
2022-09-28T10:50:31.903Z,10.99
2022-09-28T10:51:32.122Z,11.02
2022-09-28T10:52:31.290Z,11.06
2022-09-28T10:53:31.560Z,11.06
2022-09-28T10:54:31.761Z,11.12
2022-09-28T10:55:31.979Z,11.17
2022-09-28T10:56:32.205Z,11.21
2022-09-28T10:57:31.359Z,11.26
2022-09-28T10:58:31.560Z,11.30
2022-09-28T10:59:31.795Z,11.31
2022-09-28T11:00:31.987Z,11.35
2022-09-28T11:01:32.259Z,11.38
2022-09-28T11:02:35.693Z,11.41
2022-09-28T11:03:31.587Z,11.46
2022-09-28T11:04:32.756Z,11.49
2022-09-28T11:05:32.013Z,11.46
2022-09-28T11:06:31.163Z,11.42
2022-09-28T11:07:31.427Z,11.39
2022-09-28T11:08:31.596Z,11.33
2022-09-28T11:09:31.770Z,11.31
2022-09-28T11:10:31.955Z,11.31
2022-09-28T11:11:32.244Z,11.23
2022-09-28T11:12:31.261Z,11.26
2022-09-28T11:13:31.455Z,11.24
2022-09-28T11:14:31.773Z,11.21
2022-09-28T11:15:31.819Z,11.17
2022-09-28T11:16:32.049Z,11.13
2022-09-28T11:17:31.218Z,11.12
2022-09-28T11:18:31.349Z,11.11
2022-09-28T11:19:31.543Z,11.12
2022-09-28T11:20:31.684Z,11.12
2022-09-28T11:21:31.897Z,11.12
2022-09-28T11:22:31.038Z,11.20
2022-09-28T11:23:31.412Z,11.20
2022-09-28T11:24:31.382Z,11.24
2022-09-28T11:25:31.566Z,11.30
2022-09-28T11:26:31.745Z,11.36
2022-09-28T11:27:31.925Z,11.42
2022-09-28T11:28:31.052Z,11.46
2022-09-28T11:29:31.262Z,11.51
2022-09-28T11:30:31.496Z,11.70
2022-09-28T11:31:31.601Z,11.90
2022-09-28T11:32:31.749Z,11.88
2022-09-28T11:33:30.866Z,11.90
2022-09-28T11:34:57.392Z,11.90
2022-09-28T11:35:32.483Z,11.98
2022-09-28T11:36:31.385Z,11.93
2022-09-28T11:37:31.549Z,11.84
2022-09-28T11:38:31.751Z,11.75
2022-09-28T11:39:30.871Z,11.67
2022-09-28T11:40:31.125Z,11.66
2022-09-28T11:41:31.819Z,11.60
2022-09-28T11:42:31.411Z,11.57
2022-09-28T11:43:31.545Z,11.53
2022-09-28T11:44:32.691Z,11.51
2022-09-28T11:45:30.827Z,11.51
2022-09-28T11:46:31.080Z,11.49
2022-09-28T11:47:31.162Z,11.48
2022-09-28T11:48:31.301Z,11.48
2022-09-28T11:49:31.484Z,11.46
2022-09-28T11:50:30.622Z,11.44
2022-09-28T11:51:30.778Z,11.44
2022-09-28T11:52:30.972Z,11.42
2022-09-28T11:53:31.090Z,11.45
2022-09-28T11:54:31.273Z,11.53
2022-09-28T11:55:31.437Z,11.49
2022-09-28T11:56:30.552Z,11.53
2022-09-28T11:57:30.711Z,11.56
2022-09-28T11:58:30.915Z,11.62
2022-09-28T11:59:31.042Z,11.64
2022-09-28T12:00:31.283Z,11.62
2022-09-28T12:01:31.390Z,11.70
2022-09-28T12:02:30.581Z,11.87
2022-09-28T12:03:30.895Z,12.01
2022-09-28T12:04:31.085Z,12.22
2022-09-28T12:05:31.029Z,12.30
2022-09-28T12:06:31.188Z,12.33
2022-09-28T12:07:31.364Z,12.34
2022-09-28T12:08:30.464Z,12.51
2022-09-28T12:09:31.715Z,12.48
2022-09-28T12:10:30.765Z,12.40
2022-09-28T12:11:30.922Z,12.34
2022-09-28T12:12:32.036Z,12.26
2022-09-28T12:13:30.234Z,12.19
2022-09-28T12:14:30.348Z,12.12
2022-09-28T12:15:38.221Z,12.11
2022-09-28T12:17:31.842Z,12.11
2022-09-28T12:18:30.905Z,12.11
2022-09-28T12:19:31.060Z,12.08
2022-09-28T12:20:31.344Z,12.04
2022-09-28T12:21:30.279Z,12.05
2022-09-28T12:22:30.451Z,12.01
2022-09-28T12:23:30.615Z,12.00
2022-09-28T12:24:30.703Z,11.96
2022-09-28T12:25:30.900Z,11.94
2022-09-28T12:26:35.834Z,11.94
2022-09-28T12:27:31.217Z,11.94
2022-09-28T12:28:30.380Z,11.88
2022-09-28T12:29:30.523Z,11.94
2022-09-28T12:30:30.690Z,11.96
2022-09-28T12:31:30.823Z,11.93
2022-09-28T12:32:31.022Z,11.94
2022-09-28T12:33:31.195Z,11.98
2022-09-28T12:34:30.297Z,11.98
2022-09-28T12:35:30.455Z,11.97
2022-09-28T12:36:30.631Z,11.98
2022-09-28T12:37:30.880Z,12.00
2022-09-28T12:38:31.088Z,11.98
2022-09-28T12:39:46.723Z,11.98
2022-09-28T12:40:36.552Z,11.96
2022-09-28T12:41:30.402Z,11.93
2022-09-28T12:42:30.568Z,11.90
2022-09-28T12:43:30.715Z,11.88
2022-09-28T12:44:29.968Z,11.90
2022-09-28T12:45:38.472Z,11.88
2022-09-28T12:46:31.258Z,11.90
2022-09-28T12:47:30.297Z,11.90
2022-09-28T12:48:30.525Z,11.93
2022-09-28T12:50:40.820Z,11.87
2022-09-28T12:51:31.007Z,11.88
2022-09-28T12:52:30.164Z,11.93
2022-09-28T12:53:30.258Z,11.90
2022-09-28T12:54:30.418Z,11.93
2022-09-28T12:55:30.641Z,11.90
2022-09-28T12:56:29.708Z,11.93
2022-09-28T12:57:30.076Z,11.90
2022-09-28T12:58:30.038Z,11.96
2022-09-28T12:59:30.218Z,11.90
2022-09-28T13:00:30.374Z,11.93
2022-09-28T13:01:30.605Z,11.94
2022-09-28T13:02:30.742Z,11.90
2022-09-28T13:03:29.843Z,11.94
2022-09-28T13:04:30.028Z,11.94
2022-09-28T13:05:30.202Z,11.97
2022-09-28T13:06:30.406Z,11.98
2022-09-28T13:07:29.580Z,11.97
2022-09-28T13:08:29.835Z,11.94
2022-09-28T13:09:29.877Z,11.96
2022-09-28T13:10:30.070Z,11.98
2022-09-28T13:11:30.263Z,11.94
2022-09-28T13:12:30.449Z,11.90
2022-09-28T13:13:30.631Z,11.93
2022-09-28T13:14:29.755Z,11.90